sensor_id;sensor_type;location;lat;lon;timestamp;P1;durP1;ratioP1;P2;durP2;ratioP2
73474;SDS011;61711;52.266;10.542;2023-02-15T00:01:06;48.45;;;22.10;;
73474;SDS011;61711;52.266;10.542;2023-02-15T00:03:32;47.33;;;20.65;;
73474;SDS011;61711;52.266;10.542;2023-02-15T00:05:58;50.13;;;22.15;;
73474;SDS011;61711;52.266;10.542;2023-02-15T00:08:24;47.10;;;22.05;;
73474;SDS011;61711;52.266;10.542;2023-02-15T00:10:50;50.40;;;21.95;;
73474;SDS011;61711;52.266;10.542;2023-02-15T00:13:16;52.72;;;22.13;;
73474;SDS011;61711;52.266;10.542;2023-02-15T00:15:42;44.70;;;20.63;;
73474;SDS011;61711;52.266;10.542;2023-02-15T00:18:08;47.50;;;21.25;;
73474;SDS011;61711;52.266;10.542;2023-02-15T00:20:34;48.63;;;21.90;;
73474;SDS011;61711;52.266;10.542;2023-02-15T00:23:00;48.15;;;20.35;;
73474;SDS011;61711;52.266;10.542;2023-02-15T00:25:26;47.20;;;20.48;;
73474;SDS011;61711;52.266;10.542;2023-02-15T00:27:52;47.22;;;21.33;;
73474;SDS011;61711;52.266;10.542;2023-02-15T00:30:18;41.90;;;19.45;;
73474;SDS011;61711;52.266;10.542;2023-02-15T00:32:44;45.00;;;20.55;;
73474;SDS011;61711;52.266;10.542;2023-02-15T00:35:12;46.00;;;19.52;;
73474;SDS011;61711;52.266;10.542;2023-02-15T00:37:38;48.47;;;20.42;;
73474;SDS011;61711;52.266;10.542;2023-02-15T00:40:04;41.75;;;19.95;;
73474;SDS011;61711;52.266;10.542;2023-02-15T00:42:30;49.70;;;20.77;;
73474;SDS011;61711;52.266;10.542;2023-02-15T00:44:56;41.53;;;19.60;;
73474;SDS011;61711;52.266;10.542;2023-02-15T00:47:22;47.80;;;19.27;;
73474;SDS011;61711;52.266;10.542;2023-02-15T00:49:50;46.30;;;20.05;;
73474;SDS011;61711;52.266;10.542;2023-02-15T00:52:16;51.50;;;20.23;;
73474;SDS011;61711;52.266;10.542;2023-02-15T00:54:42;43.25;;;19.35;;
73474;SDS011;61711;52.266;10.542;2023-02-15T00:57:08;45.00;;;20.02;;
73474;SDS011;61711;52.266;10.542;2023-02-15T00:59:34;43.45;;;18.67;;
73474;SDS011;61711;52.266;10.542;2023-02-15T01:02:00;46.72;;;19.63;;
73474;SDS011;61711;52.266;10.542;2023-02-15T01:04:26;46.47;;;19.55;;
73474;SDS011;61711;52.266;10.542;2023-02-15T01:06:52;44.05;;;19.17;;
73474;SDS011;61711;52.266;10.542;2023-02-15T01:09:18;43.50;;;19.42;;
73474;SDS011;61711;52.266;10.542;2023-02-15T01:11:44;41.75;;;18.75;;
73474;SDS011;61711;52.266;10.542;2023-02-15T01:14:10;41.10;;;18.15;;
73474;SDS011;61711;52.266;10.542;2023-02-15T01:16:36;47.05;;;19.08;;
73474;SDS011;61711;52.266;10.542;2023-02-15T01:19:02;41.33;;;17.70;;
73474;SDS011;61711;52.266;10.542;2023-02-15T01:21:28;44.78;;;18.42;;
73474;SDS011;61711;52.266;10.542;2023-02-15T01:23:54;42.78;;;18.98;;
73474;SDS011;61711;52.266;10.542;2023-02-15T01:26:20;45.30;;;18.65;;
73474;SDS011;61711;52.266;10.542;2023-02-15T01:28:46;44.38;;;18.65;;
73474;SDS011;61711;52.266;10.542;2023-02-15T01:31:13;44.53;;;18.65;;
73474;SDS011;61711;52.266;10.542;2023-02-15T01:33:40;45.05;;;19.02;;
73474;SDS011;61711;52.266;10.542;2023-02-15T01:36:06;40.78;;;18.02;;
73474;SDS011;61711;52.266;10.542;2023-02-15T01:38:32;44.92;;;19.10;;
73474;SDS011;61711;52.266;10.542;2023-02-15T01:40:59;43.40;;;19.45;;
73474;SDS011;61711;52.266;10.542;2023-02-15T01:43:45;44.38;;;18.60;;
73474;SDS011;61711;52.266;10.542;2023-02-15T01:46:12;46.63;;;19.70;;
73474;SDS011;61711;52.266;10.542;2023-02-15T01:48:40;44.13;;;17.60;;
73474;SDS011;61711;52.266;10.542;2023-02-15T01:51:09;47.92;;;18.83;;
73474;SDS011;61711;52.266;10.542;2023-02-15T01:53:40;44.83;;;18.33;;
73474;SDS011;61711;52.266;10.542;2023-02-15T01:56:09;43.25;;;17.95;;
73474;SDS011;61711;52.266;10.542;2023-02-15T01:58:36;48.15;;;18.48;;
73474;SDS011;61711;52.266;10.542;2023-02-15T02:01:02;46.55;;;18.23;;
73474;SDS011;61711;52.266;10.542;2023-02-15T02:03:39;46.90;;;18.30;;
73474;SDS011;61711;52.266;10.542;2023-02-15T02:06:07;43.63;;;17.85;;
73474;SDS011;61711;52.266;10.542;2023-02-15T02:08:33;43.72;;;17.63;;
73474;SDS011;61711;52.266;10.542;2023-02-15T02:10:59;42.28;;;18.15;;
73474;SDS011;61711;52.266;10.542;2023-02-15T02:13:25;44.22;;;18.42;;
73474;SDS011;61711;52.266;10.542;2023-02-15T02:15:57;44.60;;;18.90;;
73474;SDS011;61711;52.266;10.542;2023-02-15T02:19:01;46.28;;;17.45;;
73474;SDS011;61711;52.266;10.542;2023-02-15T02:23:51;40.92;;;18.13;;
73474;SDS011;61711;52.266;10.542;2023-02-15T02:29:09;44.25;;;18.38;;
73474;SDS011;61711;52.266;10.542;2023-02-15T02:37:37;48.03;;;18.48;;
73474;SDS011;61711;52.266;10.542;2023-02-15T02:43:05;41.15;;;17.88;;
73474;SDS011;61711;52.266;10.542;2023-02-15T02:45:36;43.78;;;18.40;;
73474;SDS011;61711;52.266;10.542;2023-02-15T02:48:08;49.00;;;19.63;;
73474;SDS011;61711;52.266;10.542;2023-02-15T02:50:35;42.85;;;19.00;;
73474;SDS011;61711;52.266;10.542;2023-02-15T02:53:04;46.70;;;18.98;;
73474;SDS011;61711;52.266;10.542;2023-02-15T02:55:30;51.25;;;20.58;;
73474;SDS011;61711;52.266;10.542;2023-02-15T02:57:59;47.92;;;19.50;;
73474;SDS011;61711;52.266;10.542;2023-02-15T03:00:28;50.28;;;19.80;;
73474;SDS011;61711;52.266;10.542;2023-02-15T03:03:03;47.47;;;19.10;;
73474;SDS011;61711;52.266;10.542;2023-02-15T03:05:32;47.97;;;19.23;;
73474;SDS011;61711;52.266;10.542;2023-02-15T03:07:59;49.63;;;20.40;;
73474;SDS011;61711;52.266;10.542;2023-02-15T03:10:31;49.38;;;19.15;;
73474;SDS011;61711;52.266;10.542;2023-02-15T03:12:57;46.38;;;18.33;;
73474;SDS011;61711;52.266;10.542;2023-02-15T03:15:28;45.25;;;18.50;;
73474;SDS011;61711;52.266;10.542;2023-02-15T03:18:16;48.10;;;18.05;;
73474;SDS011;61711;52.266;10.542;2023-02-15T03:20:42;40.03;;;16.95;;
73474;SDS011;61711;52.266;10.542;2023-02-15T03:23:13;43.15;;;18.25;;
73474;SDS011;61711;52.266;10.542;2023-02-15T03:25:41;43.75;;;17.83;;
73474;SDS011;61711;52.266;10.542;2023-02-15T03:28:13;43.00;;;18.08;;
73474;SDS011;61711;52.266;10.542;2023-02-15T03:30:42;45.65;;;18.88;;
73474;SDS011;61711;52.266;10.542;2023-02-15T03:33:09;39.17;;;17.20;;
73474;SDS011;61711;52.266;10.542;2023-02-15T03:35:39;44.63;;;18.58;;
73474;SDS011;61711;52.266;10.542;2023-02-15T03:38:09;45.00;;;18.63;;
73474;SDS011;61711;52.266;10.542;2023-02-15T03:40:40;39.22;;;17.35;;
73474;SDS011;61711;52.266;10.542;2023-02-15T03:43:34;43.08;;;17.38;;
73474;SDS011;61711;52.266;10.542;2023-02-15T03:46:08;44.13;;;17.75;;
73474;SDS011;61711;52.266;10.542;2023-02-15T03:48:35;41.00;;;17.40;;
73474;SDS011;61711;52.266;10.542;2023-02-15T03:51:04;37.95;;;16.88;;
73474;SDS011;61711;52.266;10.542;2023-02-15T03:53:50;42.70;;;16.67;;
73474;SDS011;61711;52.266;10.542;2023-02-15T03:56:17;41.35;;;17.48;;
73474;SDS011;61711;52.266;10.542;2023-02-15T03:58:43;39.75;;;16.85;;
73474;SDS011;61711;52.266;10.542;2023-02-15T04:02:14;43.92;;;17.83;;
73474;SDS011;61711;52.266;10.542;2023-02-15T04:04:28;42.70;;;17.17;;
73474;SDS011;61711;52.266;10.542;2023-02-15T04:06:57;42.85;;;17.40;;
73474;SDS011;61711;52.266;10.542;2023-02-15T04:09:23;46.20;;;17.73;;
73474;SDS011;61711;52.266;10.542;2023-02-15T04:12:08;42.58;;;17.00;;
73474;SDS011;61711;52.266;10.542;2023-02-15T04:14:34;41.55;;;17.25;;
73474;SDS011;61711;52.266;10.542;2023-02-15T04:17:18;44.47;;;18.58;;
73474;SDS011;61711;52.266;10.542;2023-02-15T04:19:44;40.90;;;17.30;;
73474;SDS011;61711;52.266;10.542;2023-02-15T04:22:29;51.13;;;18.92;;
73474;SDS011;61711;52.266;10.542;2023-02-15T04:25:14;43.67;;;18.42;;
73474;SDS011;61711;52.266;10.542;2023-02-15T04:27:44;39.55;;;17.05;;
73474;SDS011;61711;52.266;10.542;2023-02-15T04:30:11;45.63;;;18.77;;
73474;SDS011;61711;52.266;10.542;2023-02-15T04:32:37;44.28;;;17.75;;
73474;SDS011;61711;52.266;10.542;2023-02-15T04:35:04;39.63;;;16.67;;
73474;SDS011;61711;52.266;10.542;2023-02-15T04:37:30;42.65;;;17.15;;
73474;SDS011;61711;52.266;10.542;2023-02-15T04:39:56;40.50;;;16.88;;
73474;SDS011;61711;52.266;10.542;2023-02-15T04:42:26;38.15;;;16.45;;
73474;SDS011;61711;52.266;10.542;2023-02-15T04:44:55;40.53;;;16.65;;
73474;SDS011;61711;52.266;10.542;2023-02-15T04:47:21;39.85;;;17.17;;
73474;SDS011;61711;52.266;10.542;2023-02-15T04:49:47;42.58;;;17.95;;
73474;SDS011;61711;52.266;10.542;2023-02-15T04:52:13;34.85;;;17.15;;
73474;SDS011;61711;52.266;10.542;2023-02-15T04:54:39;39.05;;;16.92;;
73474;SDS011;61711;52.266;10.542;2023-02-15T04:57:05;42.75;;;17.67;;
73474;SDS011;61711;52.266;10.542;2023-02-15T04:59:32;39.00;;;17.33;;
73474;SDS011;61711;52.266;10.542;2023-02-15T05:01:58;42.42;;;15.98;;
73474;SDS011;61711;52.266;10.542;2023-02-15T05:04:24;39.65;;;16.73;;
73474;SDS011;61711;52.266;10.542;2023-02-15T05:06:50;37.80;;;15.68;;
73474;SDS011;61711;52.266;10.542;2023-02-15T05:09:16;36.75;;;16.55;;
73474;SDS011;61711;52.266;10.542;2023-02-15T05:11:42;38.47;;;16.45;;
73474;SDS011;61711;52.266;10.542;2023-02-15T05:14:08;38.58;;;17.00;;
73474;SDS011;61711;52.266;10.542;2023-02-15T05:16:34;35.60;;;16.25;;
73474;SDS011;61711;52.266;10.542;2023-02-15T05:19:00;39.55;;;16.70;;
73474;SDS011;61711;52.266;10.542;2023-02-15T05:21:26;39.42;;;16.30;;
73474;SDS011;61711;52.266;10.542;2023-02-15T05:23:52;42.55;;;16.83;;
73474;SDS011;61711;52.266;10.542;2023-02-15T05:26:19;36.90;;;16.65;;
73474;SDS011;61711;52.266;10.542;2023-02-15T05:29:04;43.35;;;17.48;;
73474;SDS011;61711;52.266;10.542;2023-02-15T05:31:30;38.80;;;16.05;;
73474;SDS011;61711;52.266;10.542;2023-02-15T05:33:56;35.17;;;15.60;;
73474;SDS011;61711;52.266;10.542;2023-02-15T05:36:22;39.97;;;16.95;;
73474;SDS011;61711;52.266;10.542;2023-02-15T05:38:48;38.22;;;16.50;;
73474;SDS011;61711;52.266;10.542;2023-02-15T05:41:14;43.13;;;18.45;;
73474;SDS011;61711;52.266;10.542;2023-02-15T05:43:40;51.17;;;21.30;;
73474;SDS011;61711;52.266;10.542;2023-02-15T05:46:07;50.25;;;20.65;;
73474;SDS011;61711;52.266;10.542;2023-02-15T05:48:34;45.35;;;18.60;;
73474;SDS011;61711;52.266;10.542;2023-02-15T05:51:01;38.63;;;18.45;;
73474;SDS011;61711;52.266;10.542;2023-02-15T05:53:28;40.38;;;18.23;;
73474;SDS011;61711;52.266;10.542;2023-02-15T05:55:54;38.85;;;16.63;;
73474;SDS011;61711;52.266;10.542;2023-02-15T05:58:24;40.85;;;17.33;;
73474;SDS011;61711;52.266;10.542;2023-02-15T06:00:50;42.53;;;19.15;;
73474;SDS011;61711;52.266;10.542;2023-02-15T06:03:16;41.42;;;18.13;;
73474;SDS011;61711;52.266;10.542;2023-02-15T06:05:42;41.83;;;19.08;;
73474;SDS011;61711;52.266;10.542;2023-02-15T06:08:08;40.55;;;17.92;;
73474;SDS011;61711;52.266;10.542;2023-02-15T06:10:34;38.35;;;18.13;;
73474;SDS011;61711;52.266;10.542;2023-02-15T06:13:00;38.78;;;18.45;;
73474;SDS011;61711;52.266;10.542;2023-02-15T06:15:26;38.55;;;18.63;;
73474;SDS011;61711;52.266;10.542;2023-02-15T06:17:52;38.08;;;17.35;;
73474;SDS011;61711;52.266;10.542;2023-02-15T06:20:18;38.72;;;18.25;;
73474;SDS011;61711;52.266;10.542;2023-02-15T06:22:44;38.38;;;16.55;;
73474;SDS011;61711;52.266;10.542;2023-02-15T06:25:10;36.03;;;15.63;;
73474;SDS011;61711;52.266;10.542;2023-02-15T06:27:37;34.95;;;15.35;;
73474;SDS011;61711;52.266;10.542;2023-02-15T06:30:04;32.30;;;14.55;;
73474;SDS011;61711;52.266;10.542;2023-02-15T06:32:30;33.50;;;14.75;;
73474;SDS011;61711;52.266;10.542;2023-02-15T06:34:56;29.35;;;14.32;;
73474;SDS011;61711;52.266;10.542;2023-02-15T06:37:22;32.80;;;14.65;;
73474;SDS011;61711;52.266;10.542;2023-02-15T06:39:48;30.33;;;14.35;;
73474;SDS011;61711;52.266;10.542;2023-02-15T06:42:14;30.17;;;14.70;;
73474;SDS011;61711;52.266;10.542;2023-02-15T06:44:42;31.80;;;14.85;;
73474;SDS011;61711;52.266;10.542;2023-02-15T06:47:08;30.95;;;14.68;;
73474;SDS011;61711;52.266;10.542;2023-02-15T06:49:35;32.45;;;15.20;;
73474;SDS011;61711;52.266;10.542;2023-02-15T06:52:02;34.78;;;15.77;;
73474;SDS011;61711;52.266;10.542;2023-02-15T06:54:28;34.03;;;15.35;;
73474;SDS011;61711;52.266;10.542;2023-02-15T06:56:54;32.15;;;15.38;;
73474;SDS011;61711;52.266;10.542;2023-02-15T06:59:20;35.67;;;16.17;;
73474;SDS011;61711;52.266;10.542;2023-02-15T07:01:46;31.85;;;14.88;;
73474;SDS011;61711;52.266;10.542;2023-02-15T07:04:12;33.97;;;15.75;;
73474;SDS011;61711;52.266;10.542;2023-02-15T07:06:38;36.30;;;16.55;;
73474;SDS011;61711;52.266;10.542;2023-02-15T07:09:04;38.55;;;16.50;;
73474;SDS011;61711;52.266;10.542;2023-02-15T07:11:30;36.85;;;14.40;;
73474;SDS011;61711;52.266;10.542;2023-02-15T07:14:26;34.35;;;14.93;;
73474;SDS011;61711;52.266;10.542;2023-02-15T07:16:52;36.55;;;15.55;;
73474;SDS011;61711;52.266;10.542;2023-02-15T07:19:18;33.28;;;15.75;;
73474;SDS011;61711;52.266;10.542;2023-02-15T07:21:44;30.35;;;14.43;;
73474;SDS011;61711;52.266;10.542;2023-02-15T07:24:10;35.33;;;16.33;;
73474;SDS011;61711;52.266;10.542;2023-02-15T07:26:36;33.78;;;16.17;;
73474;SDS011;61711;52.266;10.542;2023-02-15T07:29:02;36.05;;;16.15;;
73474;SDS011;61711;52.266;10.542;2023-02-15T07:31:28;37.70;;;16.70;;
73474;SDS011;61711;52.266;10.542;2023-02-15T07:33:54;32.42;;;15.88;;
73474;SDS011;61711;52.266;10.542;2023-02-15T07:36:20;32.95;;;16.42;;
73474;SDS011;61711;52.266;10.542;2023-02-15T07:38:46;38.33;;;17.08;;
73474;SDS011;61711;52.266;10.542;2023-02-15T07:41:14;38.75;;;17.58;;
73474;SDS011;61711;52.266;10.542;2023-02-15T07:43:40;30.95;;;14.60;;
73474;SDS011;61711;52.266;10.542;2023-02-15T07:46:10;31.27;;;14.98;;
73474;SDS011;61711;52.266;10.542;2023-02-15T07:48:36;31.88;;;15.43;;
73474;SDS011;61711;52.266;10.542;2023-02-15T07:51:04;30.88;;;15.57;;
73474;SDS011;61711;52.266;10.542;2023-02-15T07:53:30;31.35;;;15.23;;
73474;SDS011;61711;52.266;10.542;2023-02-15T07:55:59;32.42;;;16.98;;
73474;SDS011;61711;52.266;10.542;2023-02-15T07:58:26;30.70;;;15.65;;
73474;SDS011;61711;52.266;10.542;2023-02-15T08:01:12;29.65;;;14.32;;
73474;SDS011;61711;52.266;10.542;2023-02-15T08:03:39;30.20;;;14.63;;
73474;SDS011;61711;52.266;10.542;2023-02-15T08:06:05;31.27;;;14.88;;
73474;SDS011;61711;52.266;10.542;2023-02-15T08:08:35;30.25;;;15.50;;
73474;SDS011;61711;52.266;10.542;2023-02-15T08:11:09;31.20;;;14.68;;
73474;SDS011;61711;52.266;10.542;2023-02-15T08:14:08;33.15;;;14.60;;
73474;SDS011;61711;52.266;10.542;2023-02-15T08:19:02;32.03;;;14.90;;
73474;SDS011;61711;52.266;10.542;2023-02-15T08:21:30;31.35;;;14.60;;
73474;SDS011;61711;52.266;10.542;2023-02-15T08:23:56;32.92;;;15.13;;
73474;SDS011;61711;52.266;10.542;2023-02-15T08:26:22;34.85;;;15.13;;
73474;SDS011;61711;52.266;10.542;2023-02-15T08:28:48;33.35;;;14.90;;
73474;SDS011;61711;52.266;10.542;2023-02-15T08:31:15;32.33;;;15.40;;
73474;SDS011;61711;52.266;10.542;2023-02-15T08:33:42;34.55;;;16.02;;
73474;SDS011;61711;52.266;10.542;2023-02-15T08:36:10;27.70;;;13.48;;
73474;SDS011;61711;52.266;10.542;2023-02-15T08:38:37;32.78;;;15.02;;
73474;SDS011;61711;52.266;10.542;2023-02-15T08:43:38;31.30;;;15.48;;
73474;SDS011;61711;52.266;10.542;2023-02-15T08:46:04;31.45;;;15.55;;
73474;SDS011;61711;52.266;10.542;2023-02-15T08:48:30;34.10;;;15.23;;
73474;SDS011;61711;52.266;10.542;2023-02-15T08:50:56;30.48;;;15.82;;
73474;SDS011;61711;52.266;10.542;2023-02-15T08:53:22;30.02;;;14.60;;
73474;SDS011;61711;52.266;10.542;2023-02-15T08:55:58;27.83;;;14.95;;
73474;SDS011;61711;52.266;10.542;2023-02-15T08:58:24;28.45;;;14.02;;
73474;SDS011;61711;52.266;10.542;2023-02-15T09:00:50;27.25;;;14.27;;
73474;SDS011;61711;52.266;10.542;2023-02-15T09:03:17;26.83;;;13.38;;
73474;SDS011;61711;52.266;10.542;2023-02-15T09:05:43;25.50;;;13.15;;
73474;SDS011;61711;52.266;10.542;2023-02-15T09:08:09;26.67;;;13.50;;
73474;SDS011;61711;52.266;10.542;2023-02-15T09:10:35;24.63;;;13.45;;
73474;SDS011;61711;52.266;10.542;2023-02-15T09:13:01;26.13;;;12.60;;
73474;SDS011;61711;52.266;10.542;2023-02-15T09:15:27;22.90;;;11.68;;
73474;SDS011;61711;52.266;10.542;2023-02-15T09:17:53;22.15;;;12.07;;
73474;SDS011;61711;52.266;10.542;2023-02-15T09:20:19;24.40;;;12.80;;
73474;SDS011;61711;52.266;10.542;2023-02-15T09:22:45;21.45;;;11.98;;
73474;SDS011;61711;52.266;10.542;2023-02-15T09:25:11;25.00;;;12.35;;
73474;SDS011;61711;52.266;10.542;2023-02-15T09:27:38;22.38;;;11.73;;
73474;SDS011;61711;52.266;10.542;2023-02-15T09:30:05;22.00;;;12.05;;
73474;SDS011;61711;52.266;10.542;2023-02-15T09:32:31;21.45;;;11.32;;
73474;SDS011;61711;52.266;10.542;2023-02-15T09:34:57;24.88;;;12.40;;
73474;SDS011;61711;52.266;10.542;2023-02-15T09:37:23;25.25;;;11.60;;
73474;SDS011;61711;52.266;10.542;2023-02-15T09:39:49;22.60;;;11.55;;
73474;SDS011;61711;52.266;10.542;2023-02-15T09:44:59;22.63;;;11.38;;
73474;SDS011;61711;52.266;10.542;2023-02-15T09:55:30;21.13;;;11.23;;
73474;SDS011;61711;52.266;10.542;2023-02-15T10:03:16;18.10;;;11.20;;
73474;SDS011;61711;52.266;10.542;2023-02-15T10:06:06;21.02;;;10.57;;
73474;SDS011;61711;52.266;10.542;2023-02-15T10:14:13;17.75;;;9.43;;
73474;SDS011;61711;52.266;10.542;2023-02-15T10:17:00;17.10;;;9.95;;
73474;SDS011;61711;52.266;10.542;2023-02-15T10:19:42;18.17;;;9.15;;
73474;SDS011;61711;52.266;10.542;2023-02-15T10:22:36;18.42;;;9.88;;
73474;SDS011;61711;52.266;10.542;2023-02-15T10:25:01;16.75;;;9.30;;
73474;SDS011;61711;52.266;10.542;2023-02-15T10:27:32;16.88;;;9.60;;
73474;SDS011;61711;52.266;10.542;2023-02-15T10:30:11;20.77;;;10.18;;
73474;SDS011;61711;52.266;10.542;2023-02-15T10:32:59;19.77;;;11.02;;
73474;SDS011;61711;52.266;10.542;2023-02-15T10:38:06;18.95;;;10.40;;
73474;SDS011;61711;52.266;10.542;2023-02-15T10:43:14;23.02;;;11.20;;
73474;SDS011;61711;52.266;10.542;2023-02-15T10:50:59;16.27;;;9.55;;
73474;SDS011;61711;52.266;10.542;2023-02-15T10:53:28;15.85;;;9.00;;
73474;SDS011;61711;52.266;10.542;2023-02-15T11:03:48;15.65;;;8.93;;
73474;SDS011;61711;52.266;10.542;2023-02-15T11:06:18;15.73;;;8.82;;
73474;SDS011;61711;52.266;10.542;2023-02-15T11:08:53;12.48;;;7.28;;
73474;SDS011;61711;52.266;10.542;2023-02-15T11:11:23;11.73;;;7.25;;
73474;SDS011;61711;52.266;10.542;2023-02-15T11:13:52;10.60;;;6.60;;
73474;SDS011;61711;52.266;10.542;2023-02-15T11:16:27;10.95;;;6.40;;
73474;SDS011;61711;52.266;10.542;2023-02-15T11:18:56;9.80;;;6.30;;
73474;SDS011;61711;52.266;10.542;2023-02-15T11:21:27;9.27;;;6.22;;
73474;SDS011;61711;52.266;10.542;2023-02-15T11:23:55;12.93;;;6.65;;
73474;SDS011;61711;52.266;10.542;2023-02-15T11:26:27;10.52;;;6.32;;
73474;SDS011;61711;52.266;10.542;2023-02-15T11:28:59;9.82;;;6.63;;
73474;SDS011;61711;52.266;10.542;2023-02-15T11:31:31;11.00;;;6.25;;
73474;SDS011;61711;52.266;10.542;2023-02-15T11:36:33;10.07;;;6.05;;
73474;SDS011;61711;52.266;10.542;2023-02-15T11:39:05;9.38;;;6.00;;
73474;SDS011;61711;52.266;10.542;2023-02-15T11:41:35;9.13;;;5.70;;
73474;SDS011;61711;52.266;10.542;2023-02-15T11:44:14;12.25;;;6.85;;
73474;SDS011;61711;52.266;10.542;2023-02-15T11:46:41;9.70;;;5.70;;
73474;SDS011;61711;52.266;10.542;2023-02-15T11:49:30;10.02;;;6.35;;
73474;SDS011;61711;52.266;10.542;2023-02-15T11:51:54;9.18;;;6.00;;
73474;SDS011;61711;52.266;10.542;2023-02-15T11:54:21;10.75;;;6.60;;
73474;SDS011;61711;52.266;10.542;2023-02-15T11:56:49;11.48;;;6.45;;
73474;SDS011;61711;52.266;10.542;2023-02-15T11:59:18;12.38;;;6.53;;
73474;SDS011;61711;52.266;10.542;2023-02-15T12:01:47;11.38;;;6.90;;
73474;SDS011;61711;52.266;10.542;2023-02-15T12:04:23;11.02;;;6.00;;
73474;SDS011;61711;52.266;10.542;2023-02-15T12:09:33;12.13;;;7.03;;
73474;SDS011;61711;52.266;10.542;2023-02-15T12:14:48;13.60;;;7.30;;
73474;SDS011;61711;52.266;10.542;2023-02-15T12:17:14;11.55;;;6.90;;
73474;SDS011;61711;52.266;10.542;2023-02-15T12:19:41;11.07;;;6.80;;
73474;SDS011;61711;52.266;10.542;2023-02-15T12:25:04;13.43;;;7.65;;
73474;SDS011;61711;52.266;10.542;2023-02-15T12:27:37;13.10;;;7.47;;
73474;SDS011;61711;52.266;10.542;2023-02-15T12:30:17;12.40;;;7.53;;
73474;SDS011;61711;52.266;10.542;2023-02-15T12:32:51;11.60;;;7.88;;
73474;SDS011;61711;52.266;10.542;2023-02-15T12:37:54;13.98;;;8.40;;
73474;SDS011;61711;52.266;10.542;2023-02-15T12:40:26;11.75;;;7.85;;
73474;SDS011;61711;52.266;10.542;2023-02-15T12:42:53;13.05;;;8.48;;
73474;SDS011;61711;52.266;10.542;2023-02-15T12:48:07;12.07;;;8.32;;
73474;SDS011;61711;52.266;10.542;2023-02-15T12:50:34;14.55;;;8.38;;
73474;SDS011;61711;52.266;10.542;2023-02-15T12:53:19;11.20;;;7.85;;
73474;SDS011;61711;52.266;10.542;2023-02-15T13:00:47;13.02;;;9.00;;
73474;SDS011;61711;52.266;10.542;2023-02-15T13:03:20;12.30;;;8.98;;
73474;SDS011;61711;52.266;10.542;2023-02-15T13:05:52;12.23;;;9.23;;
73474;SDS011;61711;52.266;10.542;2023-02-15T13:08:19;13.07;;;9.32;;
73474;SDS011;61711;52.266;10.542;2023-02-15T13:11:02;13.90;;;9.48;;
73474;SDS011;61711;52.266;10.542;2023-02-15T13:13:33;12.88;;;9.07;;
73474;SDS011;61711;52.266;10.542;2023-02-15T13:16:00;12.93;;;9.32;;
73474;SDS011;61711;52.266;10.542;2023-02-15T13:18:32;13.75;;;9.07;;
73474;SDS011;61711;52.266;10.542;2023-02-15T13:21:00;14.52;;;9.68;;
73474;SDS011;61711;52.266;10.542;2023-02-15T13:23:30;13.38;;;9.27;;
73474;SDS011;61711;52.266;10.542;2023-02-15T13:25:58;12.63;;;9.70;;
73474;SDS011;61711;52.266;10.542;2023-02-15T13:28:32;12.77;;;9.27;;
73474;SDS011;61711;52.266;10.542;2023-02-15T13:31:00;18.00;;;12.73;;
73474;SDS011;61711;52.266;10.542;2023-02-15T13:33:30;14.65;;;9.98;;
73474;SDS011;61711;52.266;10.542;2023-02-15T13:40:55;13.30;;;10.10;;
73474;SDS011;61711;52.266;10.542;2023-02-15T13:43:40;16.02;;;10.38;;
73474;SDS011;61711;52.266;10.542;2023-02-15T13:46:14;14.80;;;10.32;;
73474;SDS011;61711;52.266;10.542;2023-02-15T13:48:54;14.15;;;10.48;;
73474;SDS011;61711;52.266;10.542;2023-02-15T13:51:32;15.98;;;10.65;;
73474;SDS011;61711;52.266;10.542;2023-02-15T13:54:06;14.63;;;10.10;;
73474;SDS011;61711;52.266;10.542;2023-02-15T13:56:53;17.00;;;10.32;;
73474;SDS011;61711;52.266;10.542;2023-02-15T14:07:42;18.45;;;10.90;;
73474;SDS011;61711;52.266;10.542;2023-02-15T14:15:34;16.58;;;10.13;;
73474;SDS011;61711;52.266;10.542;2023-02-15T14:20:43;16.98;;;10.50;;
73474;SDS011;61711;52.266;10.542;2023-02-15T14:23:14;16.75;;;10.20;;
73474;SDS011;61711;52.266;10.542;2023-02-15T14:28:21;16.00;;;9.85;;
73474;SDS011;61711;52.266;10.542;2023-02-15T14:30:52;16.40;;;10.38;;
73474;SDS011;61711;52.266;10.542;2023-02-15T14:33:29;17.25;;;10.15;;
73474;SDS011;61711;52.266;10.542;2023-02-15T14:35:57;19.67;;;11.13;;
73474;SDS011;61711;52.266;10.542;2023-02-15T14:40:59;19.98;;;11.20;;
73474;SDS011;61711;52.266;10.542;2023-02-15T14:48:33;17.83;;;10.73;;
73474;SDS011;61711;52.266;10.542;2023-02-15T14:51:04;16.95;;;10.43;;
73474;SDS011;61711;52.266;10.542;2023-02-15T15:01:30;17.80;;;10.18;;
73474;SDS011;61711;52.266;10.542;2023-02-15T15:04:02;16.98;;;10.75;;
73474;SDS011;61711;52.266;10.542;2023-02-15T15:06:29;15.63;;;9.35;;
73474;SDS011;61711;52.266;10.542;2023-02-15T15:08:58;17.10;;;9.90;;
73474;SDS011;61711;52.266;10.542;2023-02-15T15:16:25;17.52;;;10.23;;
73474;SDS011;61711;52.266;10.542;2023-02-15T15:18:51;17.33;;;9.90;;
73474;SDS011;61711;52.266;10.542;2023-02-15T15:24:02;16.33;;;9.43;;
73474;SDS011;61711;52.266;10.542;2023-02-15T15:26:30;16.83;;;10.02;;
73474;SDS011;61711;52.266;10.542;2023-02-15T15:29:02;14.63;;;9.32;;
73474;SDS011;61711;52.266;10.542;2023-02-15T15:31:39;16.45;;;10.07;;
73474;SDS011;61711;52.266;10.542;2023-02-15T15:34:20;16.67;;;10.07;;
73474;SDS011;61711;52.266;10.542;2023-02-15T15:47:35;19.33;;;10.02;;
73474;SDS011;61711;52.266;10.542;2023-02-15T15:50:15;18.75;;;10.82;;
73474;SDS011;61711;52.266;10.542;2023-02-15T15:52:44;18.80;;;10.38;;
73474;SDS011;61711;52.266;10.542;2023-02-15T15:55:16;18.95;;;9.90;;
73474;SDS011;61711;52.266;10.542;2023-02-15T15:57:43;16.95;;;10.20;;
73474;SDS011;61711;52.266;10.542;2023-02-15T16:02:54;19.10;;;10.70;;
73474;SDS011;61711;52.266;10.542;2023-02-15T16:05:21;20.48;;;11.18;;
73474;SDS011;61711;52.266;10.542;2023-02-15T16:07:47;20.45;;;11.65;;
73474;SDS011;61711;52.266;10.542;2023-02-15T16:10:46;19.27;;;11.25;;
73474;SDS011;61711;52.266;10.542;2023-02-15T16:13:05;22.70;;;11.73;;
73474;SDS011;61711;52.266;10.542;2023-02-15T16:15:45;22.52;;;11.75;;
73474;SDS011;61711;52.266;10.542;2023-02-15T16:18:18;22.23;;;12.45;;
73474;SDS011;61711;52.266;10.542;2023-02-15T16:20:57;27.48;;;14.50;;
73474;SDS011;61711;52.266;10.542;2023-02-15T16:26:01;22.20;;;11.52;;
73474;SDS011;61711;52.266;10.542;2023-02-15T16:28:27;23.58;;;12.32;;
73474;SDS011;61711;52.266;10.542;2023-02-15T16:33:35;23.95;;;12.20;;
73474;SDS011;61711;52.266;10.542;2023-02-15T16:36:02;24.55;;;12.68;;
73474;SDS011;61711;52.266;10.542;2023-02-15T16:41:17;23.85;;;12.75;;
73474;SDS011;61711;52.266;10.542;2023-02-15T16:43:47;24.15;;;12.73;;
73474;SDS011;61711;52.266;10.542;2023-02-15T16:46:18;23.48;;;12.82;;
73474;SDS011;61711;52.266;10.542;2023-02-15T16:48:46;21.27;;;12.18;;
73474;SDS011;61711;52.266;10.542;2023-02-15T16:51:24;21.77;;;11.68;;
73474;SDS011;61711;52.266;10.542;2023-02-15T16:53:51;24.85;;;12.50;;